Time,TemperatureF,DewpointF,PressureIn,WindDirection,WindDirectionDegrees,WindSpeedMPH,WindSpeedGustMPH,Humidity,HourlyPrecipIn,Conditions,Clouds,dailyrainin,SoftwareType,DateUTC
2013-09-07 00:00:00,70.2,65.8,29.84,ESE,112,1.0,5.0,86,0.00,,---,0.00,VWS V14.01,2013-09-07 07:00:00,
2013-09-07 00:30:00,69.6,65.6,29.85,ESE,112,0.0,2.0,87,0.00,,---,0.00,VWS V14.01,2013-09-07 07:30:00,
2013-09-07 01:00:00,69.1,65.4,29.84,ESE,112,0.0,1.0,88,0.00,,---,0.00,VWS V14.01,2013-09-07 08:00:00,
2013-09-07 01:30:00,69.0,65.6,29.85,ESE,112,0.0,1.0,89,0.00,,---,0.00,VWS V14.01,2013-09-07 08:30:00,
2013-09-07 02:00:00,68.9,65.5,29.84,ESE,112,0.0,0.0,89,0.00,,---,0.00,VWS V14.01,2013-09-07 09:00:00,
2013-09-07 02:30:00,69.4,66.0,29.84,ESE,112,1.0,5.0,89,0.00,,---,0.00,VWS V14.01,2013-09-07 09:30:00,
2013-09-07 03:00:00,69.6,65.6,29.84,ESE,112,1.0,5.0,87,0.00,,---,0.00,VWS V14.01,2013-09-07 10:00:00,
2013-09-07 03:30:00,69.0,65.3,29.83,East,90,0.0,1.0,88,0.00,,---,0.00,VWS V14.01,2013-09-07 10:30:00,
2013-09-07 04:00:00,68.7,65.3,29.83,East,90,0.0,2.0,89,0.00,,---,0.00,VWS V14.01,2013-09-07 11:00:00,
2013-09-07 04:30:00,68.2,65.2,29.83,ESE,112,1.0,3.0,90,0.00,,---,0.00,VWS V14.01,2013-09-07 11:30:00,
2013-09-07 05:00:00,67.7,65.0,29.83,ESE,112,1.0,3.0,91,0.00,,---,0.00,VWS V14.01,2013-09-07 12:00:00,
2013-09-07 05:30:00,67.2,64.8,29.84,ESE,112,0.0,2.0,92,0.00,,---,0.00,VWS V14.01,2013-09-07 12:30:00,
2013-09-07 06:00:00,66.8,64.4,29.84,ESE,112,0.0,1.0,92,0.00,,---,0.00,VWS V14.01,2013-09-07 13:00:00,
2013-09-07 06:30:00,66.5,64.4,29.85,ESE,112,0.0,2.0,93,0.00,,---,0.00,VWS V14.01,2013-09-07 13:30:00,
2013-09-07 07:00:00,66.8,64.4,29.84,ESE,112,0.0,1.0,92,0.00,,---,0.00,VWS V14.01,2013-09-07 14:00:00,
2013-09-07 07:27:00,67.2,65.7,29.86,ESE,110,0.0,0.0,95,0.00,,---,0.00,VWS V14.01,2013-09-07 14:27:00,
2013-09-07 07:30:00,66.5,64.4,29.85,ESE,112,0.0,2.0,93,0.00,,---,0.00,VWS V14.01,2013-09-07 14:30:00,
2013-09-07 07:57:00,70.3,67.6,29.86,ESE,115,0.0,1.0,91,0.00,,---,0.00,VWS V14.01,2013-09-07 14:57:00,
2013-09-07 08:00:00,70.3,67.6,29.86,ESE,115,0.0,1.0,91,0.00,,---,0.00,VWS V14.01,2013-09-07 15:00:00,
2013-09-07 08:27:00,74.3,68.1,29.86,WSW,248,0.0,3.0,81,0.00,,---,0.00,VWS V14.01,2013-09-07 15:27:00,
2013-09-07 08:30:00,67.2,65.7,29.86,ESE,110,0.0,0.0,95,0.00,,---,0.00,VWS V14.01,2013-09-07 15:30:00,
2013-09-07 08:57:00,78.9,68.7,29.86,WSW,248,1.0,3.0,71,0.00,,---,0.00,VWS V14.01,2013-09-07 15:57:00,
2013-09-07 09:00:00,70.3,67.6,29.86,ESE,115,0.0,1.0,91,0.00,,---,0.00,VWS V14.01,2013-09-07 16:00:00,
2013-09-07 09:27:00,81.9,68.5,29.86,SW,235,2.0,6.0,64,0.00,,---,0.00,VWS V14.01,2013-09-07 16:27:00,
2013-09-07 09:30:00,74.3,68.1,29.86,WSW,248,0.0,3.0,81,0.00,,---,0.00,VWS V14.01,2013-09-07 16:30:00,
2013-09-07 09:57:00,84.2,69.8,29.87,South,174,2.0,6.0,62,0.00,,---,0.00,VWS V14.01,2013-09-07 16:57:00,
2013-09-07 10:00:00,78.9,68.7,29.86,WSW,248,1.0,3.0,71,0.00,,---,0.00,VWS V14.01,2013-09-07 17:00:00,
2013-09-07 10:27:00,86.5,69.0,29.87,SSE,158,3.0,6.0,56,0.00,,---,0.00,VWS V14.01,2013-09-07 17:27:00,
2013-09-07 10:30:00,81.9,68.5,29.86,SW,235,2.0,6.0,64,0.00,,---,0.00,VWS V14.01,2013-09-07 17:30:00,
2013-09-07 11:00:00,84.2,69.8,29.87,South,174,2.0,6.0,62,0.00,,---,0.00,VWS V14.01,2013-09-07 18:00:00,
2013-09-07 11:30:00,86.5,69.0,29.87,SSE,158,3.0,6.0,56,0.00,,---,0.00,VWS V14.01,2013-09-07 18:30:00,
2013-09-07 17:27:00,85.9,62.1,29.82,WNW,286,6.0,9.0,45,0.00,,---,0.00,VWS V14.01,2013-09-08 00:27:00,
2013-09-07 17:30:00,85.9,62.1,29.82,WNW,286,6.0,9.0,45,0.00,,---,0.00,VWS V14.01,2013-09-08 00:30:00,
2013-09-07 17:57:00,84.7,65.7,29.82,SSW,194,1.0,8.0,53,0.00,,---,0.00,VWS V14.01,2013-09-08 00:57:00,
2013-09-07 18:00:00,84.7,65.7,29.82,SSW,194,1.0,8.0,53,0.00,,---,0.00,VWS V14.01,2013-09-08 01:00:00,
2013-09-07 18:27:00,82.1,60.5,29.82,West,260,6.0,8.0,48,0.00,,---,0.00,VWS V14.01,2013-09-08 01:27:00,
2013-09-07 18:30:00,85.9,62.1,29.82,WNW,286,6.0,9.0,45,0.00,,---,0.00,VWS V14.01,2013-09-08 01:30:00,
2013-09-07 18:57:00,81.3,59.8,29.83,WNW,283,1.0,8.0,48,0.00,,---,0.00,VWS V14.01,2013-09-08 01:57:00,
2013-09-07 19:00:00,84.7,65.7,29.82,SSW,194,1.0,8.0,53,0.00,,---,0.00,VWS V14.01,2013-09-08 02:00:00,
2013-09-07 19:27:00,79.2,61.1,29.83,West,267,0.0,8.0,54,0.00,,---,0.00,VWS V14.01,2013-09-08 02:27:00,
2013-09-07 19:30:00,82.1,60.5,29.82,West,260,6.0,8.0,48,0.00,,---,0.00,VWS V14.01,2013-09-08 02:30:00,
2013-09-07 19:57:00,75.0,65.4,29.84,South,174,3.0,5.0,72,0.00,,---,0.00,VWS V14.01,2013-09-08 02:57:00,
2013-09-07 20:00:00,81.3,59.8,29.83,WNW,283,1.0,8.0,48,0.00,,---,0.00,VWS V14.01,2013-09-08 03:00:00,
2013-09-07 20:27:00,72.0,65.1,29.85,SSE,160,2.0,6.0,79,0.00,,---,0.00,VWS V14.01,2013-09-08 03:27:00,
2013-09-07 20:30:00,79.2,61.1,29.83,West,267,0.0,8.0,54,0.00,,---,0.00,VWS V14.01,2013-09-08 03:30:00,
2013-09-07 20:57:00,70.6,65.2,29.85,South,188,0.0,8.0,83,0.00,,---,0.00,VWS V14.01,2013-09-08 03:57:00,
2013-09-07 21:00:00,75.0,65.4,29.84,South,174,3.0,5.0,72,0.00,,---,0.00,VWS V14.01,2013-09-08 04:00:00,
2013-09-07 21:27:00,69.9,65.5,29.86,South,178,0.0,6.0,86,0.00,,---,0.00,VWS V14.01,2013-09-08 04:27:00,
2013-09-07 21:30:00,72.0,65.1,29.85,SSE,160,2.0,6.0,79,0.00,,---,0.00,VWS V14.01,2013-09-08 04:30:00,
2013-09-07 21:57:00,69.4,65.7,29.86,South,174,5.0,5.0,88,0.00,,---,0.00,VWS V14.01,2013-09-08 04:57:00,
2013-09-07 22:00:00,70.6,65.2,29.85,South,188,0.0,8.0,83,0.00,,---,0.00,VWS V14.01,2013-09-08 05:00:00,
2013-09-07 22:27:00,68.9,65.5,29.86,South,175,2.0,6.0,89,0.00,,---,0.00,VWS V14.01,2013-09-08 05:27:00,
2013-09-07 22:30:00,69.9,65.5,29.86,South,178,0.0,6.0,86,0.00,,---,0.00,VWS V14.01,2013-09-08 05:30:00,
2013-09-07 22:57:00,68.4,64.7,29.86,South,179,1.0,4.0,88,0.00,,---,0.00,VWS V14.01,2013-09-08 05:57:00,
2013-09-07 23:00:00,69.4,65.7,29.86,South,174,5.0,5.0,88,0.00,,---,0.00,VWS V14.01,2013-09-08 06:00:00,
2013-09-07 23:27:00,67.9,64.5,29.85,South,176,3.0,4.0,89,0.00,,---,0.00,VWS V14.01,2013-09-08 06:27:00,
2013-09-07 23:30:00,68.9,65.5,29.86,South,175,2.0,6.0,89,0.00,,---,0.00,VWS V14.01,2013-09-08 06:30:00,
2013-09-07 23:57:00,67.3,64.3,29.86,ESE,113,2.0,6.0,90,0.00,,---,0.00,VWS V14.01,2013-09-08 06:57:00,